createdAt,value
2022-10-09T00:00:07.577Z,101029.89
2022-10-09T00:03:01.805Z,101031.34
2022-10-09T00:05:31.275Z,101032.84
2022-10-09T00:08:00.258Z,101031.54
2022-10-09T00:10:29.693Z,101030.89
2022-10-09T00:12:58.575Z,101034.63
2022-10-09T00:15:27.564Z,101036.13
2022-10-09T00:17:56.326Z,101037.39
2022-10-09T00:20:25.302Z,101041.01
2022-10-09T00:22:54.838Z,101042.48
2022-10-09T00:25:23.771Z,101049.66
2022-10-09T00:27:52.615Z,101053.73
2022-10-09T00:30:21.413Z,101059.19
2022-10-09T00:32:50.463Z,101061.52
2022-10-09T00:35:20.200Z,101065.95
2022-10-09T00:37:49.188Z,101067.41
2022-10-09T00:40:17.993Z,101067.48
2022-10-09T00:42:49.016Z,101066.85
2022-10-09T00:45:21.136Z,101061.56
2022-10-09T00:48:12.565Z,101064.44
2022-10-09T00:50:52.138Z,101071.17
2022-10-09T00:53:24.533Z,101072.84
2022-10-09T00:55:53.724Z,101072.01
2022-10-09T00:58:24.445Z,101072.22
2022-10-09T01:00:54.114Z,101073.48
2022-10-09T01:03:23.702Z,101076.31
2022-10-09T01:06:34.753Z,101077.21
2022-10-09T01:09:20.125Z,101082.19
2022-10-09T01:12:52.926Z,101085.73
2022-10-09T01:16:23.974Z,101082.94
2022-10-09T01:19:21.809Z,101085.83
2022-10-09T01:22:22.747Z,101087.61
2022-10-09T01:25:11.274Z,101091.34
2022-10-09T01:27:42.218Z,101091.02
2022-10-09T01:30:13.389Z,101097.67
2022-10-09T01:32:49.755Z,101101.02
2022-10-09T01:35:21.721Z,101101.46
2022-10-09T01:37:53.581Z,101102.41
2022-10-09T01:40:25.535Z,101108.04
2022-10-09T01:42:55.571Z,101108.23
2022-10-09T01:45:24.844Z,101109.15
2022-10-09T01:47:53.648Z,101111.63
2022-10-09T01:50:35.154Z,101111.67
2022-10-09T01:53:11.675Z,101119.76
2022-10-09T01:56:07.530Z,101119.98
2022-10-09T01:58:55.078Z,101120.59
2022-10-09T02:01:35.522Z,101126.75
2022-10-09T02:04:10.558Z,101128.20
2022-10-09T02:06:41.527Z,101125.29
2022-10-09T02:09:16.911Z,101131.75
2022-10-09T02:11:53.159Z,101136.84
2022-10-09T02:14:24.623Z,101139.30
2022-10-09T02:17:06.194Z,101139.54
2022-10-09T02:19:48.624Z,101144.64
2022-10-09T02:22:28.159Z,101147.49
2022-10-09T02:25:03.667Z,101147.04
2022-10-09T02:27:33.718Z,101154.71
2022-10-09T02:30:04.872Z,101151.96
2022-10-09T02:32:33.987Z,101154.81
2022-10-09T02:35:05.792Z,101158.88
2022-10-09T02:37:34.655Z,101162.05
2022-10-09T02:40:09.755Z,101161.01
2022-10-09T02:42:39.475Z,101164.33
2022-10-09T02:45:09.369Z,101161.02
2022-10-09T02:47:38.283Z,101163.45
2022-10-09T02:50:08.237Z,101168.15
2022-10-09T02:52:37.076Z,101170.77
2022-10-09T02:55:06.153Z,101171.49
2022-10-09T02:57:41.944Z,101175.70
2022-10-09T03:00:11.892Z,101184.77
2022-10-09T03:02:40.856Z,101185.48
2022-10-09T03:05:11.401Z,101188.45
2022-10-09T03:07:40.255Z,101192.30
2022-10-09T03:10:10.570Z,101193.22
2022-10-09T03:12:40.440Z,101195.48
2022-10-09T03:15:10.073Z,101195.02
2022-10-09T03:17:39.034Z,101198.36
2022-10-09T03:20:08.514Z,101207.27
2022-10-09T03:22:37.309Z,101210.42
2022-10-09T03:25:07.229Z,101210.12
2022-10-09T03:27:38.451Z,101214.32
2022-10-09T03:30:07.923Z,101209.48
2022-10-09T03:32:36.721Z,101213.18
2022-10-09T03:35:07.490Z,101214.63
2022-10-09T03:37:36.273Z,101215.34
2022-10-09T03:40:05.975Z,101218.00
2022-10-09T03:42:34.762Z,101221.19
2022-10-09T03:45:06.769Z,101222.27
2022-10-09T03:47:35.518Z,101226.27
2022-10-09T03:50:04.783Z,101226.42
2022-10-09T03:52:33.648Z,101230.29
2022-10-09T03:55:04.526Z,101232.58
2022-10-09T03:57:33.641Z,101236.41
2022-10-09T04:00:03.200Z,101238.69
2022-10-09T04:02:34.517Z,101245.64
2022-10-09T04:05:03.729Z,101247.77
2022-10-09T04:07:33.660Z,101249.33
2022-10-09T04:10:04.415Z,101246.71
2022-10-09T04:12:35.845Z,101247.42
2022-10-09T04:15:05.593Z,101249.35
2022-10-09T04:17:34.474Z,101251.28
2022-10-09T04:20:06.314Z,101260.84
2022-10-09T04:22:35.358Z,101261.39
2022-10-09T04:25:04.814Z,101262.30
2022-10-09T04:27:33.866Z,101263.89
2022-10-09T04:30:06.000Z,101267.23
2022-10-09T04:32:37.003Z,101272.83
2022-10-09T04:35:06.716Z,101273.06
2022-10-09T04:37:36.894Z,101276.21
2022-10-09T04:40:06.141Z,101278.82
2022-10-09T04:42:35.022Z,101278.66
2022-10-09T04:45:04.821Z,101282.32
2022-10-09T04:47:34.442Z,101285.79
2022-10-09T04:50:04.224Z,101288.05
2022-10-09T04:52:33.647Z,101291.02
2022-10-09T04:55:02.604Z,101291.57
2022-10-09T04:57:33.952Z,101294.19
2022-10-09T05:00:06.887Z,101299.94
2022-10-09T05:02:38.607Z,101302.74
2022-10-09T05:05:08.237Z,101300.17
2022-10-09T05:07:37.089Z,101308.66
2022-10-09T05:10:07.448Z,101311.25
2022-10-09T05:12:36.191Z,101313.85
2022-10-09T05:15:06.079Z,101319.04
2022-10-09T05:17:37.230Z,101322.34
2022-10-09T05:20:09.665Z,101321.47
2022-10-09T05:22:39.975Z,101325.11
2022-10-09T05:25:12.290Z,101324.23
2022-10-09T05:27:41.177Z,101326.12
2022-10-09T05:30:11.025Z,101323.33
2022-10-09T05:32:39.886Z,101330.42
2022-10-09T05:35:09.001Z,101329.70
2022-10-09T05:37:37.856Z,101331.61
2022-10-09T05:40:07.849Z,101336.97
2022-10-09T05:42:36.698Z,101342.84
2022-10-09T05:45:06.588Z,101343.70
2022-10-09T05:47:35.414Z,101348.73
2022-10-09T05:50:09.967Z,101353.01
2022-10-09T05:52:40.144Z,101357.66
2022-10-09T05:55:09.254Z,101356.23
2022-10-09T05:57:38.189Z,101360.69
2022-10-09T06:00:08.190Z,101361.31
2022-10-09T06:02:41.383Z,101365.23
2022-10-09T06:05:10.296Z,101368.09
2022-10-09T06:07:39.102Z,101368.02
2022-10-09T06:10:08.520Z,101375.73
2022-10-09T06:12:37.423Z,101378.82
2022-10-09T06:15:07.110Z,101378.10
2022-10-09T06:17:35.982Z,101376.30
2022-10-09T06:20:05.442Z,101383.71
2022-10-09T06:22:34.418Z,101388.34
2022-10-09T06:25:03.495Z,101391.93
2022-10-09T06:27:32.607Z,101397.77
2022-10-09T06:30:01.673Z,101403.54
2022-10-09T06:32:30.725Z,101405.02
2022-10-09T06:35:02.642Z,101407.67
2022-10-09T06:37:34.225Z,101407.39
2022-10-09T06:40:03.421Z,101413.52
2022-10-09T06:42:32.550Z,101414.09
2022-10-09T06:45:01.581Z,101413.60
2022-10-09T06:47:35.104Z,101417.77
2022-10-09T06:50:09.901Z,101415.86
2022-10-09T06:52:43.040Z,101421.47
2022-10-09T06:55:14.097Z,101421.40
2022-10-09T06:58:11.253Z,101424.93
2022-10-09T07:01:57.243Z,101432.42
2022-10-09T07:04:45.303Z,101437.25
2022-10-09T07:07:54.404Z,101444.48
2022-10-09T07:10:40.695Z,101447.61
2022-10-09T07:13:16.005Z,101454.77
2022-10-09T07:16:09.917Z,101454.88
2022-10-09T07:18:48.594Z,101455.56
2022-10-09T07:21:24.602Z,101457.30
2022-10-09T07:24:18.237Z,101461.59
2022-10-09T07:27:49.719Z,101462.52
2022-10-09T07:30:34.823Z,101469.39
2022-10-09T07:33:04.457Z,101470.23
2022-10-09T07:39:11.728Z,101467.10
2022-10-09T07:41:55.273Z,101468.60
2022-10-09T07:53:53.779Z,101481.21
2022-10-09T07:56:54.596Z,101480.79
2022-10-09T07:59:46.237Z,101481.59
2022-10-09T08:02:24.225Z,101484.58
2022-10-09T08:04:53.784Z,101487.20
2022-10-09T08:07:23.186Z,101491.80
2022-10-09T08:10:03.036Z,101495.94
2022-10-09T08:12:32.750Z,101498.89
2022-10-09T08:15:12.712Z,101501.22
2022-10-09T08:17:47.279Z,101502.66
2022-10-09T08:20:21.851Z,101501.04
2022-10-09T08:22:59.663Z,101504.70
2022-10-09T08:25:39.778Z,101504.41
2022-10-09T08:28:19.778Z,101509.67
2022-10-09T08:31:18.515Z,101509.41
2022-10-09T08:33:55.678Z,101512.70
2022-10-09T08:36:35.072Z,101509.19
2022-10-09T08:39:06.398Z,101508.42
2022-10-09T08:41:44.545Z,101511.17
2022-10-09T08:44:36.402Z,101512.52
2022-10-09T08:47:26.115Z,101515.37
2022-10-09T08:50:20.156Z,101517.13
2022-10-09T08:53:13.308Z,101517.75
2022-10-09T08:55:57.075Z,101516.27
2022-10-09T08:58:34.713Z,101518.63
2022-10-09T09:02:18.203Z,101519.01
2022-10-09T09:05:15.768Z,101524.04
2022-10-09T09:08:06.740Z,101525.52
2022-10-09T09:10:48.188Z,101526.23
2022-10-09T09:13:31.059Z,101520.86
2022-10-09T09:17:15.270Z,101520.95
2022-10-09T09:20:08.583Z,101521.98
2022-10-09T09:22:50.352Z,101526.86
2022-10-09T09:25:27.174Z,101525.13
2022-10-09T09:28:13.861Z,101528.32
2022-10-09T09:31:02.300Z,101525.63
2022-10-09T09:34:12.262Z,101525.86
2022-10-09T09:37:00.385Z,101527.79
2022-10-09T09:43:49.882Z,101526.44
2022-10-09T09:47:01.284Z,101528.02
2022-10-09T09:50:01.462Z,101528.17
2022-10-09T09:52:46.566Z,101523.20
2022-10-09T09:55:30.257Z,101523.41
2022-10-09T09:58:17.982Z,101520.39
2022-10-09T10:01:08.597Z,101522.23
2022-10-09T10:09:36.883Z,101514.48
2022-10-09T10:12:25.916Z,101517.67
2022-10-09T10:15:36.143Z,101511.56
2022-10-09T10:18:20.664Z,101513.84
2022-10-09T10:21:14.861Z,101517.39
2022-10-09T10:29:43.538Z,101523.20
2022-10-09T10:32:54.651Z,101523.05
2022-10-09T10:35:38.586Z,101520.27
2022-10-09T10:38:44.437Z,101524.70
2022-10-09T10:41:34.262Z,101522.90
2022-10-09T10:44:50.020Z,101522.02
2022-10-09T10:47:35.902Z,101525.39
2022-10-09T10:50:14.199Z,101527.63
2022-10-09T10:52:59.192Z,101529.73
2022-10-09T10:56:10.494Z,101527.86
2022-10-09T10:59:39.532Z,101527.84
2022-10-09T11:02:42.664Z,101526.59
2022-10-09T11:06:24.030Z,101529.22
2022-10-09T11:10:18.012Z,101531.92
2022-10-09T11:13:28.170Z,101529.14
2022-10-09T11:16:51.994Z,101527.63
2022-10-09T11:23:28.751Z,101523.85
2022-10-09T11:26:48.849Z,101522.63
2022-10-09T11:30:09.435Z,101520.34
2022-10-09T11:32:57.145Z,101518.95
2022-10-09T11:39:09.178Z,101515.70
2022-10-09T11:41:43.532Z,101510.10
2022-10-09T11:44:50.441Z,101508.15
2022-10-09T11:47:39.109Z,101507.92
2022-10-09T11:50:47.870Z,101497.39
2022-10-09T11:53:41.346Z,101504.00
2022-10-09T11:57:15.131Z,101503.05
2022-10-09T12:01:03.462Z,101506.11
2022-10-09T12:03:42.764Z,101504.69
2022-10-09T12:06:20.390Z,101499.98
2022-10-09T12:09:11.382Z,101496.63
2022-10-09T12:12:12.594Z,101490.02
2022-10-09T12:15:16.055Z,101490.43
2022-10-09T12:17:53.754Z,101489.00
2022-10-09T12:20:31.204Z,101490.19
2022-10-09T12:23:43.335Z,101484.61
2022-10-09T12:26:37.776Z,101487.98
2022-10-09T12:34:59.805Z,101480.49
2022-10-09T12:37:51.577Z,101476.86
2022-10-09T12:40:33.377Z,101478.58
2022-10-09T12:43:21.547Z,101478.67
2022-10-09T12:45:58.698Z,101481.73
2022-10-09T12:48:43.012Z,101476.70
2022-10-09T12:51:33.889Z,101472.80
2022-10-09T12:54:10.499Z,101471.40
2022-10-09T12:56:39.809Z,101466.18
2022-10-09T12:59:12.981Z,101460.63
2022-10-09T13:06:52.622Z,101467.02
2022-10-09T13:09:32.712Z,101468.98
2022-10-09T13:12:28.897Z,101470.55
2022-10-09T13:15:05.287Z,101468.36
2022-10-09T13:17:40.777Z,101461.55
2022-10-09T13:20:12.645Z,101462.08
2022-10-09T13:22:52.886Z,101463.80
2022-10-09T13:25:27.444Z,101461.77
2022-10-09T13:27:57.203Z,101460.42
2022-10-09T13:30:27.359Z,101457.98
2022-10-09T13:32:56.748Z,101460.64
2022-10-09T14:01:43.453Z,101449.70
2022-10-09T14:04:12.578Z,101448.79
2022-10-09T14:06:41.531Z,101445.23
2022-10-09T14:09:14.211Z,101443.23
2022-10-09T14:11:43.469Z,101445.42
2022-10-09T14:14:13.824Z,101446.86
2022-10-09T14:16:43.049Z,101446.39
2022-10-09T14:19:14.358Z,101443.48
2022-10-09T14:21:43.346Z,101439.91
2022-10-09T14:24:14.526Z,101437.55
2022-10-09T14:26:48.365Z,101435.70
2022-10-09T14:29:20.549Z,101432.45
2022-10-09T14:31:54.041Z,101428.77
2022-10-09T14:34:28.061Z,101432.86
2022-10-09T14:36:59.162Z,101432.73
2022-10-09T14:39:33.196Z,101432.40
2022-10-09T14:42:18.140Z,101434.17
2022-10-09T14:45:34.183Z,101434.09
2022-10-09T14:48:10.421Z,101432.74
2022-10-09T14:50:41.573Z,101428.54
2022-10-09T14:53:12.035Z,101426.60
2022-10-09T14:55:56.456Z,101425.74
2022-10-09T14:58:37.366Z,101424.45
2022-10-09T15:01:18.690Z,101425.45
2022-10-09T15:03:54.998Z,101425.71
2022-10-09T15:06:30.787Z,101428.80
2022-10-09T15:09:04.561Z,101426.07
2022-10-09T15:11:39.055Z,101425.08
2022-10-09T15:14:08.536Z,101426.89
2022-10-09T15:16:45.877Z,101422.19
2022-10-09T15:19:19.580Z,101419.61
2022-10-09T15:21:56.605Z,101420.50
2022-10-09T15:24:28.415Z,101421.99
2022-10-09T15:27:02.300Z,101421.42
2022-10-09T15:29:36.719Z,101420.69
2022-10-09T15:32:09.757Z,101421.54
2022-10-09T15:34:41.141Z,101423.09
2022-10-09T15:37:19.127Z,101427.31
2022-10-09T15:39:55.372Z,101428.91
2022-10-09T15:42:45.475Z,101428.00
2022-10-09T15:45:19.435Z,101422.67
2022-10-09T15:48:01.733Z,101422.44
2022-10-09T15:50:35.934Z,101426.27
2022-10-09T15:53:13.594Z,101423.11
2022-10-09T15:55:45.969Z,101425.05
2022-10-09T15:58:31.639Z,101423.62
2022-10-09T16:02:01.335Z,101423.55
2022-10-09T16:04:40.282Z,101429.98
2022-10-09T16:07:41.626Z,101434.30
2022-10-09T16:10:23.001Z,101440.08
2022-10-09T16:12:58.419Z,101441.30
2022-10-09T16:15:30.439Z,101440.08
2022-10-09T16:18:08.135Z,101442.67
2022-10-09T16:24:22.910Z,101450.73
2022-10-09T16:26:58.315Z,101448.35
2022-10-09T16:29:53.401Z,101446.66
2022-10-09T16:32:25.019Z,101443.77
2022-10-09T16:34:58.311Z,101444.28
2022-10-09T16:37:36.276Z,101444.66
2022-10-09T16:40:09.040Z,101447.52
2022-10-09T16:42:38.178Z,101443.70
2022-10-09T16:45:10.485Z,101440.23
2022-10-09T16:47:47.906Z,101441.45
2022-10-09T16:50:17.033Z,101441.83
2022-10-09T16:52:50.426Z,101444.82
2022-10-09T16:55:19.264Z,101447.45
2022-10-09T16:57:48.838Z,101452.70
2022-10-09T17:00:19.379Z,101451.45
2022-10-09T17:02:48.574Z,101452.59
2022-10-09T17:05:20.686Z,101456.48
2022-10-09T17:07:50.241Z,101458.77
2022-10-09T17:10:19.816Z,101462.48
2022-10-09T17:12:51.239Z,101462.58
2022-10-09T17:15:22.262Z,101464.66
2022-10-09T17:17:51.475Z,101466.31
2022-10-09T17:20:20.671Z,101469.58
2022-10-09T17:22:49.959Z,101475.39
2022-10-09T17:25:19.924Z,101477.57
2022-10-09T17:27:49.030Z,101479.95
2022-10-09T17:30:18.280Z,101479.91
2022-10-09T17:32:47.694Z,101479.14
2022-10-09T17:35:19.483Z,101478.55
2022-10-09T17:37:48.780Z,101480.41
2022-10-09T17:40:18.046Z,101479.66
2022-10-09T17:42:48.022Z,101478.70
2022-10-09T17:45:17.591Z,101480.48
2022-10-09T17:47:51.031Z,101479.58
2022-10-09T17:50:20.123Z,101478.48
2022-10-09T17:52:49.655Z,101479.14
2022-10-09T17:55:19.027Z,101478.71
2022-10-09T17:57:48.501Z,101474.13
2022-10-09T18:00:21.709Z,101477.17
2022-10-09T18:02:51.092Z,101474.00
2022-10-09T18:05:24.712Z,101471.30
2022-10-09T18:07:53.756Z,101474.17
2022-10-09T18:10:23.082Z,101475.80
2022-10-09T18:12:53.566Z,101477.24
2022-10-09T18:15:24.945Z,101476.08
2022-10-09T18:17:55.505Z,101476.52
2022-10-09T18:20:24.814Z,101481.16
2022-10-09T18:22:56.779Z,101479.16
2022-10-09T18:25:26.276Z,101477.30
2022-10-09T18:27:55.599Z,101480.22
2022-10-09T18:30:25.867Z,101477.59
2022-10-09T18:32:55.280Z,101473.27
2022-10-09T18:35:26.023Z,101478.15
2022-10-09T18:37:55.836Z,101483.02
2022-10-09T18:40:27.668Z,101482.71
2022-10-09T18:42:57.274Z,101486.38
2022-10-09T18:45:27.453Z,101485.70
2022-10-09T18:48:04.601Z,101486.11
2022-10-09T18:50:34.653Z,101491.13
2022-10-09T18:53:05.181Z,101492.19
2022-10-09T18:55:34.884Z,101495.31
2022-10-09T18:58:06.171Z,101497.05
2022-10-09T19:00:42.648Z,101498.02
2022-10-09T19:03:14.277Z,101501.17
2022-10-09T19:05:45.080Z,101505.90
2022-10-09T19:08:14.269Z,101502.67
2022-10-09T19:10:50.007Z,101500.09
2022-10-09T19:13:20.616Z,101501.69
2022-10-09T19:15:53.923Z,101505.54
2022-10-09T19:18:30.209Z,101495.83
2022-10-09T19:21:07.749Z,101494.46
2022-10-09T19:23:39.666Z,101490.98
2022-10-09T19:26:08.850Z,101490.29
2022-10-09T19:28:38.874Z,101487.34
2022-10-09T19:31:10.180Z,101492.56
2022-10-09T19:33:40.606Z,101493.64
2022-10-09T19:36:13.685Z,101495.58
2022-10-09T19:38:53.035Z,101497.15
2022-10-09T19:41:22.702Z,101494.59
2022-10-09T19:44:01.935Z,101495.12
2022-10-09T19:46:54.030Z,101493.42
2022-10-09T19:49:36.374Z,101492.20
2022-10-09T19:52:12.598Z,101489.75
2022-10-09T19:54:43.143Z,101497.23
2022-10-09T19:57:17.656Z,101492.41
2022-10-09T20:00:08.374Z,101493.84
2022-10-09T20:02:44.503Z,101495.98
2022-10-09T20:05:24.409Z,101494.45
2022-10-09T20:07:56.803Z,101497.95
2022-10-09T20:10:26.496Z,101499.02
2022-10-09T20:13:12.539Z,101498.48
2022-10-09T20:15:53.876Z,101499.39
2022-10-09T20:18:31.764Z,101498.23
2022-10-09T20:21:03.091Z,101504.83
2022-10-09T20:23:45.905Z,101503.83
2022-10-09T20:26:21.399Z,101502.80
2022-10-09T20:28:54.060Z,101501.09
2022-10-09T20:31:26.918Z,101505.79
2022-10-09T20:33:57.379Z,101504.41
2022-10-09T20:36:35.376Z,101500.80
2022-10-09T20:39:13.455Z,101502.22
2022-10-09T20:41:46.604Z,101500.69
2022-10-09T20:44:15.675Z,101499.13
2022-10-09T20:46:44.670Z,101495.15
2022-10-09T20:49:21.313Z,101498.66
2022-10-09T20:51:56.330Z,101494.35
2022-10-09T20:54:31.949Z,101493.34
2022-10-09T20:57:05.005Z,101495.44
2022-10-09T20:59:41.802Z,101499.14
2022-10-09T21:02:14.505Z,101500.30
2022-10-09T21:04:50.268Z,101504.49
2022-10-09T21:07:24.212Z,101497.78
2022-10-09T21:10:08.852Z,101503.55
2022-10-09T21:12:47.253Z,101498.52
2022-10-09T21:15:32.796Z,101494.20
2022-10-09T21:18:06.066Z,101494.73
2022-10-09T21:20:49.497Z,101495.05
2022-10-09T21:23:23.314Z,101494.90
2022-10-09T21:26:05.899Z,101496.35
2022-10-09T21:28:41.397Z,101491.75
2022-10-09T21:31:24.051Z,101492.45
2022-10-09T21:34:18.909Z,101489.18
2022-10-09T21:40:20.332Z,101485.73
2022-10-09T21:43:12.436Z,101480.89
2022-10-09T21:46:00.343Z,101477.42
2022-10-09T21:48:33.124Z,101472.53
2022-10-09T21:51:02.972Z,101473.02
2022-10-09T21:53:35.358Z,101469.21
2022-10-09T21:56:07.502Z,101464.96
2022-10-09T21:58:41.952Z,101460.82
2022-10-09T22:01:13.132Z,101463.77
2022-10-09T22:03:42.230Z,101465.19
2022-10-09T22:06:18.962Z,101463.66
2022-10-09T22:08:48.812Z,101464.03
2022-10-09T22:11:18.003Z,101461.80
2022-10-09T22:13:48.316Z,101465.98
2022-10-09T22:16:17.220Z,101463.92
2022-10-09T22:18:46.079Z,101463.95
2022-10-09T22:21:16.976Z,101466.92
2022-10-09T22:23:47.190Z,101466.79
2022-10-09T22:26:21.219Z,101465.42
2022-10-09T22:28:54.172Z,101465.08
2022-10-09T22:31:29.051Z,101462.13
2022-10-09T22:34:03.209Z,101464.90
2022-10-09T22:36:35.799Z,101461.25
2022-10-09T22:39:09.516Z,101456.50
2022-10-09T22:41:39.074Z,101458.24
2022-10-09T22:44:10.827Z,101462.58
2022-10-09T22:46:45.568Z,101460.33
2022-10-09T22:49:17.210Z,101458.25
2022-10-09T22:51:49.029Z,101457.53
2022-10-09T22:54:22.396Z,101454.08
2022-10-09T22:56:52.846Z,101452.17
2022-10-09T22:59:28.141Z,101452.34
2022-10-09T23:02:00.498Z,101446.62
2022-10-09T23:04:34.148Z,101440.23
2022-10-09T23:07:05.631Z,101437.64
2022-10-09T23:09:44.338Z,101439.39
2022-10-09T23:12:18.273Z,101439.23
2022-10-09T23:14:51.942Z,101442.36
2022-10-09T23:17:21.082Z,101443.09
2022-10-09T23:19:57.330Z,101435.35
2022-10-09T23:22:31.487Z,101437.45
2022-10-09T23:25:52.973Z,101441.61
2022-10-09T23:28:21.890Z,101440.23
2022-10-09T23:30:53.980Z,101439.90
2022-10-09T23:33:22.807Z,101438.00
2022-10-09T23:35:55.697Z,101435.56
2022-10-09T23:38:25.108Z,101436.93
2022-10-09T23:41:05.077Z,101436.59
2022-10-09T23:43:37.830Z,101436.98
2022-10-09T23:46:11.044Z,101438.76
2022-10-09T23:48:39.992Z,101436.36
2022-10-09T23:51:14.367Z,101441.22
2022-10-09T23:53:46.766Z,101437.60
2022-10-09T23:56:23.662Z,101430.50
2022-10-09T23:58:54.114Z,101431.02
